Time;durP1;ratioP1;P1;durP2;ratioP2;P2;SDS_P1;SDS_P2;PMS_P1;PMS_P2;Temp;Humidity;BMP_temperature;BMP_pressure;BME280_temperature;BME280_humidity;BME280_pressure;Samples;Min_cycle;Max_cycle;Signal;HPM_P1;HPM_P2
2023/08/09 00:00:31;;;;;;;5.75;2.78;;;15.10;1.00;;;;;;5002672;28;20233;-68
2023/08/09 00:03:02;;;;;;;2.05;1.77;;;15.00;1.00;;;;;;4985795;28;20273;-70
2023/08/09 00:05:29;;;;;;;5.03;2.72;;;15.10;1.00;;;;;;4987957;28;20226;-70
2023/08/09 00:07:56;;;;;;;3.17;2.05;;;15.00;1.00;;;;;;4991111;28;20199;-71
2023/08/09 00:10:25;;;;;;;1.95;1.73;;;15.10;1.00;;;;;;4982505;28;20226;-71
2023/08/09 00:12:51;;;;;;;1.83;1.60;;;15.20;1.00;;;;;;4987247;28;20836;-68
2023/08/09 00:15:18;;;;;;;2.35;1.67;;;15.30;1.00;;;;;;4985740;28;20228;-70
2023/08/09 00:17:45;;;;;;;3.05;1.83;;;15.30;1.00;;;;;;4983625;28;20205;-70
2023/08/09 00:20:12;;;;;;;2.75;1.67;;;15.30;1.00;;;;;;4986728;28;20235;-69
2023/08/09 00:22:41;;;;;;;2.78;1.90;;;15.50;1.00;;;;;;4988718;28;20221;-62
2023/08/09 00:25:13;;;;;;;1.98;1.77;;;15.20;1.00;;;;;;4986810;28;20214;-68
2023/08/09 00:27:42;;;;;;;2.20;1.70;;;15.00;1.00;;;;;;4985923;28;20267;-68
2023/08/09 00:30:10;;;;;;;2.28;1.88;;;14.80;1.00;;;;;;4983766;28;20201;-68
2023/08/09 00:32:39;;;;;;;2.00;1.75;;;14.70;1.00;;;;;;4997941;28;20646;-68
2023/08/09 00:35:06;;;;;;;1.48;1.38;;;14.80;1.00;;;;;;4987990;28;20654;-68
2023/08/09 00:37:35;;;;;;;2.72;2.00;;;14.80;1.00;;;;;;5000186;28;20198;-68
2023/08/09 00:40:07;;;;;;;2.60;1.50;;;14.90;1.00;;;;;;5001960;28;20217;-68
2023/08/09 00:42:34;;;;;;;1.60;1.50;;;14.90;1.00;;;;;;4987701;28;20197;-68
2023/08/09 00:45:03;;;;;;;1.90;1.70;;;14.80;1.00;;;;;;4986356;28;20275;-68
2023/08/09 00:47:32;;;;;;;3.28;1.60;;;14.60;1.00;;;;;;4981978;28;20685;-68
2023/08/09 00:50:00;;;;;;;2.72;1.40;;;14.50;1.00;;;;;;4995601;28;20276;-68
2023/08/09 00:52:27;;;;;;;2.38;1.40;;;14.50;1.00;;;;;;4982658;28;20217;-67
2023/08/09 00:54:56;;;;;;;1.77;1.52;;;14.50;1.00;;;;;;4986266;28;20217;-68
2023/08/09 00:57:23;;;;;;;2.03;1.42;;;14.40;1.00;;;;;;4996113;28;20201;-68
2023/08/09 00:59:51;;;;;;;4.07;1.77;;;14.40;1.00;;;;;;4975020;28;20205;-68
2023/08/09 01:02:19;;;;;;;3.30;2.20;;;14.40;1.00;;;;;;5025368;28;20266;-69
2023/08/09 01:04:46;;;;;;;16.88;9.90;;;14.40;1.00;;;;;;5078330;22;20250;-66
2023/08/09 01:07:23;;;;;;;8.52;4.38;;;14.30;1.00;;;;;;5072356;28;20629;-66
2023/08/09 01:10:03;;;;;;;14.40;6.97;;;14.30;1.00;;;;;;5066059;28;20193;-63
2023/08/09 01:12:38;;;;;;;3.00;2.53;;;14.30;1.00;;;;;;5068691;28;20561;-63
2023/08/09 01:15:06;;;;;;;3.47;2.30;;;14.10;1.00;;;;;;5074586;28;20243;-64
2023/08/09 01:17:34;;;;;;;2.22;1.88;;;14.10;1.00;;;;;;5060108;28;20222;-65
2023/08/09 01:20:07;;;;;;;1.70;1.60;;;14.00;1.00;;;;;;5054470;28;20197;-65
2023/08/09 01:22:38;;;;;;;2.80;2.03;;;14.00;1.00;;;;;;5035368;28;20186;-65
2023/08/09 01:25:08;;;;;;;2.83;2.43;;;14.00;1.00;;;;;;5074402;28;20285;-65
2023/08/09 01:27:36;;;;;;;19.27;11.95;;;14.00;1.00;;;;;;5055893;28;20261;-65
2023/08/09 01:30:04;;;;;;;4.77;3.60;;;13.90;1.00;;;;;;5067113;28;20857;-65
2023/08/09 01:32:34;;;;;;;12.57;7.00;;;14.00;1.00;;;;;;5075083;28;20561;-64
2023/08/09 01:35:02;;;;;;;3.88;2.97;;;14.00;1.00;;;;;;5056597;28;20183;-62
2023/08/09 01:37:47;;;;;;;4.03;1.60;;;14.00;1.00;;;;;;5056487;28;20600;-62
2023/08/09 01:40:17;;;;;;;5.23;3.60;;;14.00;1.00;;;;;;5074077;28;20194;-62
2023/08/09 01:42:45;;;;;;;2.77;2.03;;;14.00;1.00;;;;;;5052619;28;20217;-66
2023/08/09 01:45:13;;;;;;;3.17;2.23;;;13.90;1.00;;;;;;5073384;28;20187;-67
2023/08/09 01:47:41;;;;;;;15.23;8.77;;;13.90;1.00;;;;;;5075405;28;20191;-66
2023/08/09 01:50:24;;;;;;;6.67;4.20;;;13.90;1.00;;;;;;5056065;28;20416;-63
2023/08/09 01:52:55;;;;;;;5.50;4.50;;;13.90;1.00;;;;;;5070239;28;20186;-64
2023/08/09 01:55:25;;;;;;;5.22;4.18;;;14.00;1.00;;;;;;5074652;28;20668;-64
2023/08/09 01:57:54;;;;;;;3.50;2.50;;;13.90;1.00;;;;;;5076766;28;20198;-64
